Hovedside
METAR-TAF:

METAR-TAF

Lufthavner :

Oslo, Norge

Oslo lufthavn (Gardermoen)

breddegrad: 60-12N, lengdegrad: 011-05E, høyde over havet: 208 m

Gjeldene værobservasjon

Denne rapporten ble laget for 25 minutter siden, klokken 13:20 UTC
Vind 4 kt fra Øst, skiftende mellom Nordøst og Sørøst
Temperatur -7°C
Luftfuktighet 62%
Trykk 1042 hPa
Sikt 10 km eller mer
Spredte skyer i en høyde av 2000 ft
regnbyger i nærheten

METAR: ENGM 251320Z 08004KT 050V130 9999 VCSH SCT020 M07/M13 Q1042 NOSIG

Tid: 14:45 (13:45 UTC)

Varsel

Varsel gyldig fra 25. klokken 12 UTC til 26. klokken 12 UTC
Vind 5 kt fra Øst-sørøst
Sikt 10 km eller mer
Få skyer i en høyde av 1500 ft
Spredte skyer i en høyde av 3500 ft
Blir
fra 25. klokken 18 UTC til 25. klokken 21 UTC
Vind 10 kt fra Nord-nordøst
Sannsynlighet 30%
fra 26. klokken 03 UTC til 26. klokken 08 UTC
Sikt: 2000 m
Brutte skyer i en høyde av 200 ft
tåkebanker

TAF: ENGM 2512/2612 12005KT 9999 FEW015 SCT035 BECMG 2518/2521 02010KT PROB30 2603/2608 2000 BCFG BKN002

Værobservasjoner og værvarsel for over 4000 flyplasser (METAR- og TAF-rapporter).

Tilgjengelige stasjoner er representert av de røde og gule prikkene på kartet.

Hold musepekeren over prikken for å se navnet på stasjonen.

Klikk så for å se værobservasjoner og -varsler.

For å forandre kartet kan du klikke på den grønne knappen med svart kryss for å zoome inn, på den grønne knappen med strek for å zoome ut, eller på de grønne pilene for å se tilstøtende kart.


METAR-TAF: